createdAt,value
2022-09-07T00:03:57.988Z,99.90
2022-09-07T00:09:03.393Z,99.90
2022-09-07T00:14:07.809Z,99.90
2022-09-07T00:19:10.676Z,99.90
2022-09-07T00:24:13.646Z,99.90
2022-09-07T00:29:16.575Z,99.90
2022-09-07T00:34:19.601Z,99.90
2022-09-07T00:39:22.367Z,99.90
2022-09-07T00:44:43.843Z,99.90
2022-09-07T00:49:54.626Z,99.90
2022-09-07T00:55:03.062Z,99.90
2022-09-07T01:00:07.385Z,99.90
2022-09-07T01:05:35.821Z,99.90
2022-09-07T01:10:39.525Z,99.90
2022-09-07T01:16:09.456Z,99.90
2022-09-07T01:21:22.136Z,99.90
2022-09-07T01:27:08.475Z,99.90
2022-09-07T01:32:26.641Z,99.90
2022-09-07T01:37:55.056Z,99.90
2022-09-07T01:43:16.893Z,99.90
2022-09-07T01:48:21.782Z,99.90
2022-09-07T01:53:50.840Z,99.90
2022-09-07T01:59:07.747Z,99.90
2022-09-07T02:04:20.786Z,99.90
2022-09-07T02:09:35.271Z,99.90
2022-09-07T02:14:44.029Z,99.90
2022-09-07T02:20:03.691Z,99.90
2022-09-07T02:25:09.418Z,99.90
2022-09-07T02:30:13.693Z,99.90
2022-09-07T02:35:17.127Z,99.90
2022-09-07T02:40:20.182Z,99.90
2022-09-07T02:45:23.331Z,99.90
2022-09-07T02:50:44.674Z,99.90
2022-09-07T02:56:34.026Z,99.90
2022-09-07T03:02:05.070Z,99.90
2022-09-07T03:07:55.513Z,99.90
2022-09-07T03:12:58.341Z,99.90
2022-09-07T03:18:01.186Z,99.90
2022-09-07T03:23:05.110Z,99.90
2022-09-07T03:28:08.314Z,99.90
2022-09-07T03:33:11.540Z,99.90
2022-09-07T03:38:14.477Z,99.90
2022-09-07T03:43:17.889Z,99.90
2022-09-07T03:48:20.699Z,99.90
2022-09-07T03:53:23.568Z,99.90
2022-09-07T03:58:28.335Z,99.90
2022-09-07T04:03:32.434Z,99.90
2022-09-07T04:08:37.515Z,99.90
2022-09-07T04:13:41.653Z,99.90
2022-09-07T04:18:45.339Z,99.90
2022-09-07T04:23:49.193Z,99.90
2022-09-07T04:28:53.033Z,99.90
2022-09-07T04:33:56.755Z,99.90
2022-09-07T04:39:02.725Z,99.90
2022-09-07T04:44:05.808Z,99.90
2022-09-07T04:49:12.121Z,99.90
2022-09-07T04:54:15.105Z,99.90
2022-09-07T04:59:18.166Z,99.90
2022-09-07T05:04:21.096Z,99.90
2022-09-07T05:09:24.015Z,99.90
2022-09-07T05:14:27.032Z,99.90
2022-09-07T05:19:29.835Z,99.90
2022-09-07T05:24:36.795Z,99.90
2022-09-07T05:35:02.595Z,99.90
2022-09-07T05:40:06.288Z,99.90
2022-09-07T05:45:10.785Z,99.90
2022-09-07T05:50:13.599Z,99.90
2022-09-07T05:55:29.488Z,99.90
2022-09-07T06:00:33.678Z,99.90
2022-09-07T06:05:36.562Z,99.90
2022-09-07T06:15:43.360Z,99.90
2022-09-07T06:20:46.483Z,99.90
2022-09-07T06:25:50.032Z,99.90
2022-09-07T06:30:52.879Z,99.90
2022-09-07T06:36:03.923Z,99.90
2022-09-07T06:52:04.677Z,99.90
2022-09-07T06:57:09.450Z,99.90
2022-09-07T07:02:15.095Z,99.90
2022-09-07T07:07:18.320Z,99.90
2022-09-07T07:17:22.713Z,99.90
2022-09-07T07:27:49.642Z,99.90
2022-09-07T07:32:53.085Z,99.90
2022-09-07T07:43:18.980Z,99.90
2022-09-07T07:48:21.988Z,99.90
2022-09-07T07:53:41.956Z,99.90
2022-09-07T07:58:48.049Z,99.90
2022-09-07T08:03:51.124Z,99.60
2022-09-07T08:08:56.038Z,98.70
2022-09-07T08:14:00.357Z,98.00
2022-09-07T08:19:03.445Z,98.30
2022-09-07T08:24:06.433Z,98.00
2022-09-07T08:29:09.164Z,97.60
2022-09-07T08:34:12.040Z,97.40
2022-09-07T08:39:14.763Z,97.10
2022-09-07T08:44:49.633Z,97.40
2022-09-07T08:50:02.173Z,96.90
2022-09-07T08:55:20.428Z,96.70
2022-09-07T09:00:23.776Z,96.00
2022-09-07T09:05:37.189Z,95.60
2022-09-07T09:10:58.204Z,95.30
2022-09-07T09:16:32.529Z,95.10
2022-09-07T09:21:35.775Z,94.50
2022-09-07T09:26:43.054Z,93.70
2022-09-07T09:31:47.479Z,93.50
2022-09-07T09:36:54.256Z,93.60
2022-09-07T09:42:20.531Z,93.00
2022-09-07T09:47:34.215Z,92.10
2022-09-07T09:52:46.401Z,92.30
2022-09-07T10:08:58.963Z,90.70
2022-09-07T10:14:01.873Z,90.40
2022-09-07T10:19:04.606Z,90.10
2022-09-07T10:24:07.351Z,88.60
2022-09-07T10:29:22.691Z,86.50
2022-09-07T10:34:43.428Z,85.00
2022-09-07T10:40:06.211Z,83.00
2022-09-07T10:46:03.736Z,82.90
2022-09-07T10:51:18.016Z,80.90
2022-09-07T10:56:33.321Z,80.00
2022-09-07T11:01:53.487Z,78.50
2022-09-07T11:07:59.064Z,77.60
2022-09-07T11:13:06.323Z,75.60
2022-09-07T11:18:14.534Z,71.50
2022-09-07T11:23:46.299Z,70.00
2022-09-07T11:34:45.207Z,64.70
2022-09-07T11:39:58.153Z,62.90
2022-09-07T11:45:31.418Z,62.40
2022-09-07T11:50:39.506Z,61.40
2022-09-07T11:55:47.337Z,61.90
2022-09-07T12:01:16.223Z,61.50
2022-09-07T12:06:27.210Z,62.10
2022-09-07T12:12:14.412Z,62.10
2022-09-07T12:17:26.680Z,61.60
2022-09-07T12:22:29.535Z,61.40
2022-09-07T12:27:32.851Z,60.50
2022-09-07T12:32:56.857Z,61.00
2022-09-07T12:38:19.238Z,60.70
2022-09-07T12:43:21.923Z,62.70
2022-09-07T12:48:52.217Z,62.40
2022-09-07T12:54:35.877Z,61.80
2022-09-07T13:00:11.627Z,61.40
2022-09-07T13:05:41.069Z,60.70
2022-09-07T13:10:44.516Z,60.10
2022-09-07T13:16:05.202Z,60.00
2022-09-07T13:21:08.068Z,60.30
2022-09-07T13:26:54.806Z,60.80
2022-09-07T13:32:17.674Z,61.70
2022-09-07T13:37:25.066Z,61.40
2022-09-07T13:42:33.719Z,61.70
2022-09-07T13:48:01.900Z,63.40
2022-09-07T13:53:44.600Z,63.30
2022-09-07T13:58:52.172Z,63.00
2022-09-07T14:04:09.508Z,62.70
2022-09-07T14:09:24.000Z,63.00
2022-09-07T14:14:33.258Z,62.80
2022-09-07T14:19:41.906Z,62.10
2022-09-07T14:25:01.913Z,62.20
2022-09-07T14:30:23.465Z,62.50
2022-09-07T14:35:33.911Z,62.80
2022-09-07T14:40:36.842Z,63.00
2022-09-07T14:45:39.911Z,62.60
2022-09-07T14:51:05.473Z,62.60
2022-09-07T14:56:35.912Z,61.70
2022-09-07T15:01:38.990Z,61.60
2022-09-07T15:12:09.616Z,61.40
2022-09-07T15:22:48.903Z,59.90
2022-09-07T15:27:51.826Z,60.30
2022-09-07T15:32:57.391Z,60.40
2022-09-07T15:38:02.270Z,60.20
2022-09-07T15:43:19.474Z,59.70
2022-09-07T15:48:27.553Z,59.60
2022-09-07T15:58:55.191Z,58.40
2022-09-07T16:03:59.073Z,58.70
2022-09-07T16:09:02.429Z,59.00
2022-09-07T16:14:05.346Z,59.30
2022-09-07T16:19:12.718Z,60.20
2022-09-07T16:24:17.408Z,61.00
2022-09-07T16:29:20.543Z,61.70
2022-09-07T16:34:23.295Z,62.80
2022-09-07T16:39:26.517Z,63.60
2022-09-07T16:44:29.455Z,64.70
2022-09-07T16:49:32.496Z,65.60
2022-09-07T16:54:35.828Z,66.70
2022-09-07T16:59:38.724Z,67.70
2022-09-07T17:04:41.631Z,68.40
2022-09-07T17:09:44.598Z,69.40
2022-09-07T17:14:47.420Z,70.70
2022-09-07T17:19:50.834Z,71.10
2022-09-07T17:24:55.538Z,71.60
2022-09-07T17:29:58.357Z,72.00
2022-09-07T17:35:01.347Z,72.30
2022-09-07T17:40:06.356Z,72.80
2022-09-07T17:45:11.541Z,73.20
2022-09-07T17:50:14.436Z,74.20
2022-09-07T17:55:17.337Z,74.90
2022-09-07T18:00:20.245Z,75.70
2022-09-07T18:05:22.982Z,76.20
2022-09-07T18:10:26.628Z,76.90
2022-09-07T18:15:29.747Z,77.30
2022-09-07T18:20:34.458Z,78.30
2022-09-07T18:25:37.748Z,78.90
2022-09-07T18:30:42.276Z,79.40
2022-09-07T18:35:47.268Z,80.10
2022-09-07T18:40:51.138Z,80.70
2022-09-07T18:46:00.105Z,81.30
2022-09-07T18:51:03.600Z,81.90
2022-09-07T18:56:15.737Z,82.60
2022-09-07T19:01:18.985Z,83.10
2022-09-07T19:06:24.639Z,83.80
2022-09-07T19:11:27.553Z,84.30
2022-09-07T19:16:31.597Z,84.70
2022-09-07T19:21:39.316Z,85.20
2022-09-07T19:26:48.271Z,85.50
2022-09-07T19:32:06.918Z,85.80
2022-09-07T19:37:12.653Z,86.40
2022-09-07T19:42:15.963Z,86.80
2022-09-07T19:47:19.446Z,87.30
2022-09-07T19:52:22.302Z,87.70
2022-09-07T19:57:25.130Z,88.30
2022-09-07T20:02:27.912Z,88.60
2022-09-07T20:07:30.759Z,89.10
2022-09-07T20:12:33.582Z,89.60
2022-09-07T20:17:37.634Z,90.00
2022-09-07T20:22:40.518Z,90.10
2022-09-07T20:27:43.807Z,90.30
2022-09-07T20:32:46.544Z,90.50
2022-09-07T20:37:49.543Z,90.60
2022-09-07T20:42:52.427Z,90.80
2022-09-07T20:47:55.278Z,91.00
2022-09-07T20:52:58.154Z,91.40
2022-09-07T20:58:00.885Z,91.60
2022-09-07T21:03:04.225Z,91.80
2022-09-07T21:08:07.216Z,92.40
2022-09-07T21:13:10.570Z,92.40
2022-09-07T21:18:16.894Z,92.50
2022-09-07T21:23:19.763Z,92.60
2022-09-07T21:28:23.418Z,92.70
2022-09-07T21:33:28.393Z,93.00
2022-09-07T21:38:31.163Z,93.20
2022-09-07T21:43:34.981Z,93.50
2022-09-07T21:48:38.158Z,93.70
2022-09-07T21:53:42.067Z,94.00
2022-09-07T21:58:44.953Z,94.20
2022-09-07T22:03:56.954Z,94.60
2022-09-07T22:09:00.910Z,94.90
2022-09-07T22:14:05.356Z,95.10
2022-09-07T22:19:08.165Z,95.30
2022-09-07T22:24:15.183Z,95.60
2022-09-07T22:29:17.975Z,96.00
2022-09-07T22:34:20.907Z,96.30
2022-09-07T22:39:23.739Z,96.50
2022-09-07T22:44:27.591Z,96.80
2022-09-07T22:49:30.351Z,97.10
2022-09-07T22:54:33.118Z,97.40
2022-09-07T22:59:35.942Z,97.70
2022-09-07T23:04:39.219Z,98.00
2022-09-07T23:09:42.256Z,98.30
2022-09-07T23:14:45.036Z,98.50
2022-09-07T23:19:48.121Z,98.90
2022-09-07T23:24:50.879Z,99.20
2022-09-07T23:29:53.558Z,99.60
2022-09-07T23:34:56.243Z,99.80
2022-09-07T23:39:59.038Z,99.90
2022-09-07T23:45:03.190Z,99.90
2022-09-07T23:50:07.052Z,99.90
2022-09-07T23:55:11.091Z,99.90
